Time;durP1;ratioP1;P1;durP2;ratioP2;P2;SDS_P1;SDS_P2;PMS_P1;PMS_P2;Temp;Humidity;BMP_temperature;BMP_pressure;BME280_temperature;BME280_humidity;BME280_pressure;Samples;Min_cycle;Max_cycle;Signal;HPM_P1;HPM_P2
2022/01/07 00:01:15;;;;;;;;;;;;;;;1.90;76.05;100249.72;4918278;29;20420;-74
2022/01/07 00:03:40;;;;;;;10.32;1.67;;;;;;;1.89;76.29;100242.75;4918266;29;19966;-75
2022/01/07 00:06:06;;;;;;;5.53;2.15;;;;;;;1.89;76.59;100248.91;4917971;29;20103;-74
2022/01/07 00:08:32;;;;;;;5.22;1.40;;;;;;;1.90;76.52;100239.09;4917760;29;20052;-75
2022/01/07 00:10:57;;;;;;;7.70;1.98;;;;;;;1.92;76.85;100232.66;4918143;29;20043;-76
2022/01/07 00:13:23;;;;;;;6.00;1.98;;;;;;;1.96;76.07;100243.81;4918450;29;20387;-77
2022/01/07 00:15:49;;;;;;;5.70;2.03;;;;;;;1.96;76.68;100225.22;4917823;29;20043;-74
2022/01/07 00:18:14;;;;;;;4.72;1.70;;;;;;;1.99;76.76;100223.06;4918605;29;20428;-74
2022/01/07 00:20:40;;;;;;;5.22;1.63;;;;;;;2.05;76.20;100226.94;4917848;29;20119;-75
2022/01/07 00:23:05;;;;;;;9.37;1.73;;;;;;;1.94;76.95;100220.06;4918704;29;20075;-75
2022/01/07 00:25:31;;;;;;;5.15;1.80;;;;;;;1.95;76.72;100221.72;4919404;29;20264;-75
2022/01/07 00:27:57;;;;;;;8.65;2.42;;;;;;;1.93;77.05;100210.41;4919051;29;20168;-76
2022/01/07 00:30:22;;;;;;;10.98;2.35;;;;;;;1.89;77.12;100208.22;4917935;29;20107;-76
2022/01/07 00:32:48;;;;;;;5.50;2.03;;;;;;;1.87;77.52;100212.84;4918016;29;20044;-76
2022/01/07 00:35:14;;;;;;;4.57;2.13;;;;;;;1.82;77.77;100223.91;4918248;29;20043;-76
2022/01/07 00:37:40;;;;;;;4.40;1.90;;;;;;;1.83;77.56;100212.31;4917756;29;20044;-75
2022/01/07 00:40:09;;;;;;;8.93;2.42;;;;;;;1.81;78.06;100200.16;4917786;29;20051;-75
2022/01/07 00:42:34;;;;;;;8.52;2.10;;;;;;;1.81;78.60;100193.03;4917892;29;20042;-74
2022/01/07 00:45:00;;;;;;;6.20;2.10;;;;;;;1.80;78.35;100191.34;4901511;29;20475;-74
2022/01/07 00:47:25;;;;;;;7.88;2.25;;;;;;;1.80;78.40;100175.41;4918308;29;20720;-74
2022/01/07 00:49:51;;;;;;;5.65;2.00;;;;;;;1.91;77.86;100185.81;4918349;29;20444;-74
2022/01/07 00:52:16;;;;;;;6.45;2.10;;;;;;;1.86;77.92;100163.34;4918288;29;20044;-75
2022/01/07 00:54:42;;;;;;;9.52;2.17;;;;;;;1.82;77.77;100168.13;4900826;29;20032;-74
2022/01/07 00:57:07;;;;;;;3.78;1.60;;;;;;;1.88;77.87;100161.38;4917115;29;20056;-80
2022/01/07 00:59:33;;;;;;;8.75;2.45;;;;;;;1.85;77.66;100151.06;4917064;29;20380;-74
2022/01/07 01:01:59;;;;;;;10.73;3.08;;;;;;;1.81;78.04;100149.69;4917360;29;20372;-76
2022/01/07 01:04:24;;;;;;;15.60;2.33;;;;;;;1.87;77.46;100149.91;4916928;29;20036;-75
2022/01/07 01:06:49;;;;;;;5.70;2.47;;;;;;;1.83;77.54;100153.03;4916593;29;20095;-76
2022/01/07 01:09:15;;;;;;;8.00;2.00;;;;;;;1.84;77.59;100163.50;4917056;29;20032;-76
2022/01/07 01:11:40;;;;;;;7.28;2.38;;;;;;;1.84;78.10;100157.34;4917059;29;20097;-75
2022/01/07 01:14:06;;;;;;;9.50;2.38;;;;;;;1.85;77.93;100153.72;4917098;29;20032;-76
2022/01/07 01:16:32;;;;;;;11.75;3.30;;;;;;;1.87;78.12;100147.25;4917233;29;20047;-76
2022/01/07 01:18:58;;;;;;;5.38;2.22;;;;;;;1.88;78.40;100156.91;4900127;29;20059;-75
2022/01/07 01:21:24;;;;;;;7.15;2.17;;;;;;;1.93;77.91;100144.00;4916731;29;20361;-76
2022/01/07 01:23:50;;;;;;;10.48;2.65;;;;;;;1.87;77.76;100149.09;4916680;29;20035;-76
2022/01/07 01:26:15;;;;;;;;;;;;;;;1.91;77.77;100143.31;4916565;29;20127;-75
2022/01/07 01:28:41;;;;;;;3.97;1.58;;;;;;;1.86;78.35;100139.44;4916853;29;19998;-74
2022/01/07 01:31:07;;;;;;;7.13;2.17;;;;;;;1.86;78.55;100134.13;4917071;29;20021;-75
2022/01/07 01:33:33;;;;;;;5.25;1.92;;;;;;;1.82;78.25;100125.63;4917162;29;20035;-77
2022/01/07 01:35:59;;;;;;;4.05;1.70;;;;;;;1.92;78.29;100121.06;4917265;29;20047;-76
2022/01/07 01:38:27;;;;;;;3.92;1.83;;;;;;;1.87;78.18;100119.84;4917279;29;20056;-76
2022/01/07 01:40:53;;;;;;;7.35;2.35;;;;;;;1.88;77.97;100122.34;4917812;29;20083;-79
2022/01/07 01:43:18;;;;;;;4.45;1.65;;;;;;;1.94;78.02;100112.94;4917032;29;20387;-76
2022/01/07 01:45:44;;;;;;;6.20;2.08;;;;;;;1.87;78.66;100106.56;4916881;29;20040;-74
2022/01/07 01:48:09;;;;;;;6.18;2.08;;;;;;;1.87;78.44;100106.56;4917102;29;20032;-75
2022/01/07 01:50:35;;;;;;;6.07;2.30;;;;;;;1.83;78.77;100100.72;4916945;29;20036;-76
2022/01/07 01:53:00;;;;;;;8.77;2.08;;;;;;;1.83;78.96;100094.59;4916539;29;20032;-75
2022/01/07 01:55:27;;;;;;;7.95;2.72;;;;;;;1.78;79.02;100089.78;4916722;29;20037;-76
2022/01/07 01:57:54;;;;;;;5.97;2.10;;;;;;;1.78;79.44;100083.63;4916365;29;20032;-75
2022/01/07 02:00:22;;;;;;;6.82;2.08;;;;;;;1.76;79.46;100082.94;4916720;29;20490;-73
2022/01/07 02:02:47;;;;;;;7.72;2.10;;;;;;;1.74;79.31;100080.44;4916758;29;20032;-76
2022/01/07 02:05:13;;;;;;;4.80;1.52;;;;;;;1.79;78.83;100085.28;4916442;29;20387;-77
2022/01/07 02:07:40;;;;;;;5.85;1.80;;;;;;;1.79;78.50;100085.28;4899530;29;20147;-76
2022/01/07 02:10:10;;;;;;;4.95;2.13;;;;;;;1.77;79.16;100084.59;4916763;29;20036;-76
2022/01/07 02:12:36;;;;;;;4.75;1.73;;;;;;;1.74;79.26;100078.63;4916503;29;20040;-76
2022/01/07 02:15:03;;;;;;;4.95;1.70;;;;;;;1.80;79.18;100079.78;4916602;29;20032;-77
2022/01/07 02:17:28;;;;;;;5.90;2.30;;;;;;;1.79;79.35;100072.84;4916174;29;20119;-76
2022/01/07 02:19:55;;;;;;;6.18;2.25;;;;;;;1.73;79.17;100082.25;4916798;29;20141;-75
2022/01/07 02:22:21;;;;;;;8.43;1.90;;;;;;;1.74;79.57;100069.81;4916550;29;20050;-76
2022/01/07 02:24:48;;;;;;;8.55;2.28;;;;;;;1.70;80.28;100063.97;4916731;29;20442;-76
2022/01/07 02:27:15;;;;;;;4.88;1.90;;;;;;;1.70;80.17;100063.97;4916219;29;20114;-74
2022/01/07 02:29:43;;;;;;;6.95;1.95;;;;;;;1.71;81.14;100062.16;4916755;29;20032;-74
2022/01/07 02:32:08;;;;;;;7.57;2.63;;;;;;;1.65;81.23;100063.59;4916178;29;20108;-76
2022/01/07 02:34:34;;;;;;;6.85;2.15;;;;;;;1.58;81.58;100049.31;4916302;29;20036;-75
2022/01/07 02:36:59;;;;;;;6.55;1.70;;;;;;;1.49;82.35;100044.91;4916764;29;20036;-76
2022/01/07 02:39:24;;;;;;;5.03;2.30;;;;;;;1.46;82.71;100057.66;4901537;29;20044;-76
2022/01/07 02:41:50;;;;;;;7.47;2.33;;;;;;;1.46;82.96;100055.00;4919459;29;20275;-75
2022/01/07 02:44:15;;;;;;;4.15;1.70;;;;;;;1.39;83.61;100053.00;4919639;29;20279;-75
2022/01/07 02:46:41;;;;;;;7.97;2.33;;;;;;;1.44;84.42;100047.19;4919893;29;20194;-76
2022/01/07 02:49:12;;;;;;;10.68;2.58;;;;;;;1.35;85.07;100046.31;4919852;29;20119;-75
2022/01/07 02:51:38;;;;;;;5.65;2.22;;;;;;;1.26;84.92;100043.75;4919362;29;20512;-76
2022/01/07 02:54:04;;;;;;;;;;;;;;;1.17;86.01;100042.03;4919765;29;20036;-75
2022/01/07 02:56:29;;;;;;;8.88;2.92;;;;;;;1.09;86.62;100026.88;4919160;29;19998;-75
2022/01/07 02:58:54;;;;;;;4.72;2.40;;;;;;;1.01;86.76;100035.59;4919495;29;20043;-75
2022/01/07 03:01:20;;;;;;;5.93;2.30;;;;;;;0.94;88.29;100023.94;4919764;29;20072;-75
2022/01/07 03:03:45;;;;;;;7.20;3.03;;;;;;;0.95;87.81;100028.25;4902318;29;20459;-76
2022/01/07 03:06:10;;;;;;;10.20;2.67;;;;;;;0.86;88.55;100031.84;4919244;29;20310;-74
2022/01/07 03:08:36;;;;;;;5.75;2.45;;;;;;;0.86;88.59;100012.44;4918978;29;20076;-76
2022/01/07 03:11:01;;;;;;;9.05;3.35;;;;;;;0.86;88.65;100010.63;4918826;29;20467;-76
2022/01/07 03:13:26;;;;;;;9.15;2.67;;;;;;;0.79;88.95;99998.09;4919317;29;20479;-75
2022/01/07 03:15:52;;;;;;;8.50;3.07;;;;;;;0.76;89.60;99998.41;4919399;29;20036;-75
2022/01/07 03:18:17;;;;;;;9.73;3.30;;;;;;;0.72;90.06;100000.53;4919100;29;20621;-73
2022/01/07 03:20:42;;;;;;;7.33;2.63;;;;;;;0.67;89.85;99990.38;4919173;29;20326;-75
2022/01/07 03:23:11;;;;;;;7.00;2.80;;;;;;;0.63;90.55;99982.88;4918862;29;20460;-75
2022/01/07 03:25:38;;;;;;;10.30;3.05;;;;;;;0.58;90.49;99985.97;4918902;29;20099;-75
2022/01/07 03:28:03;;;;;;;;;;;;;;;0.57;90.37;99964.94;4919444;29;20036;-76
2022/01/07 03:30:29;;;;;;;4.88;2.40;;;;;;;0.53;90.98;99967.06;4918719;29;20406;-78
2022/01/07 03:32:55;;;;;;;;;;;;;;;0.56;91.45;99961.44;4919318;29;20043;-75
2022/01/07 03:35:20;;;;;;;7.45;3.20;;;;;;;0.53;91.20;99952.97;4919558;29;19911;-78
2022/01/07 03:37:48;;;;;;;8.50;3.38;;;;;;;0.49;91.03;99951.63;4919326;29;20091;-80
2022/01/07 03:40:14;;;;;;;8.98;3.80;;;;;;;0.47;91.32;99940.31;4919062;29;20047;-80
2022/01/07 03:42:40;;;;;;;6.97;3.38;;;;;;;0.46;91.79;99928.06;4918849;29;20387;-76
2022/01/07 03:45:06;;;;;;;;;;;;;;;0.46;91.50;99936.00;4919030;29;20036;-79
2022/01/07 03:47:32;;;;;;;6.90;3.22;;;;;;;0.43;91.82;99920.41;4918802;29;19918;-76
2022/01/07 03:49:57;;;;;;;8.43;3.03;;;;;;;0.45;91.50;99921.94;4918782;29;20033;-78
2022/01/07 03:52:23;;;;;;;10.53;3.53;;;;;;;0.47;91.60;99916.47;4918929;29;20044;-80
2022/01/07 03:54:50;;;;;;;6.63;2.75;;;;;;;0.45;91.58;99908.66;4918160;29;20271;-76
2022/01/07 03:57:17;;;;;;;7.28;2.85;;;;;;;0.47;91.67;99909.34;4918423;29;20475;-77
2022/01/07 03:59:42;;;;;;;9.20;2.85;;;;;;;0.45;91.75;99911.31;4918409;29;20032;-78
2022/01/07 04:02:08;;;;;;;9.98;3.92;;;;;;;0.43;91.58;99913.28;4918533;29;20047;-79
2022/01/07 04:04:33;;;;;;;14.02;4.13;;;;;;;0.49;91.80;99904.75;4918576;29;20079;-79
2022/01/07 04:06:59;;;;;;;9.02;2.45;;;;;;;0.46;91.76;99890.94;4918481;29;20059;-76
2022/01/07 04:09:24;;;;;;;9.35;2.97;;;;;;;0.49;91.52;99898.59;4918243;29;20073;-78
2022/01/07 04:11:49;;;;;;;6.97;2.38;;;;;;;0.52;91.27;99893.00;4901393;29;20478;-77
2022/01/07 04:14:15;;;;;;;5.75;3.10;;;;;;;0.52;91.56;99909.75;4917958;29;20472;-77
2022/01/07 04:16:40;;;;;;;11.47;3.20;;;;;;;0.54;91.05;99893.66;4918272;29;20036;-77
2022/01/07 04:19:05;;;;;;;7.63;3.17;;;;;;;0.53;91.50;99889.38;4918425;29;20268;-76
2022/01/07 04:21:31;;;;;;;5.53;2.63;;;;;;;0.53;91.49;99876.94;4918134;29;20044;-77
2022/01/07 04:23:56;;;;;;;7.70;2.80;;;;;;;0.62;91.05;99875.16;4901186;29;20032;-77
2022/01/07 04:26:21;;;;;;;7.30;2.57;;;;;;;0.62;90.63;99880.47;4917912;29;20779;-77
2022/01/07 04:28:47;;;;;;;7.82;2.58;;;;;;;0.68;91.06;99880.69;4917723;29;20053;-74
2022/01/07 04:31:12;;;;;;;6.83;2.77;;;;;;;0.66;90.50;99874.72;4917624;29;20044;-75
2022/01/07 04:33:37;;;;;;;8.07;2.70;;;;;;;0.61;90.52;99884.09;4917981;29;20383;-76
2022/01/07 04:36:03;;;;;;;10.68;3.58;;;;;;;0.63;90.68;99877.66;4917442;29;20044;-75
2022/01/07 04:38:28;;;;;;;6.35;2.45;;;;;;;0.61;90.74;99876.16;4917301;29;20118;-75
2022/01/07 04:40:54;;;;;;;4.63;2.05;;;;;;;0.65;90.48;99869.56;4917472;29;20028;-76
2022/01/07 04:43:19;;;;;;;6.93;2.57;;;;;;;0.66;90.32;99866.75;4917252;29;20083;-75
2022/01/07 04:45:45;;;;;;;16.05;2.42;;;;;;;0.58;90.68;99869.34;4917547;29;20264;-75
2022/01/07 04:48:10;;;;;;;;;;;;;;;0.58;90.62;99863.19;4917598;29;20420;-76
2022/01/07 04:50:37;;;;;;;7.22;2.47;;;;;;;0.66;90.87;99865.94;4917563;29;19922;-76
2022/01/07 04:53:03;;;;;;;6.45;2.67;;;;;;;0.61;90.18;99866.38;4917439;29;20114;-77
2022/01/07 04:55:35;;;;;;;5.43;2.47;;;;;;;0.68;90.22;99866.59;4917145;29;20175;-75
2022/01/07 04:58:01;;;;;;;5.72;2.50;;;;;;;0.64;90.41;99865.25;4917149;29;20028;-75
2022/01/07 05:00:26;;;;;;;7.72;2.40;;;;;;;0.64;90.82;99862.59;4916954;29;20440;-78
2022/01/07 05:02:51;;;;;;;8.60;2.67;;;;;;;0.65;90.62;99864.25;4917801;29;20036;-75
2022/01/07 05:05:17;;;;;;;4.97;2.23;;;;;;;0.66;90.07;99861.47;4917663;29;20408;-76
2022/01/07 05:07:42;;;;;;;7.03;2.22;;;;;;;0.65;90.28;99856.31;4917397;29;20175;-76
2022/01/07 05:10:10;;;;;;;4.47;2.15;;;;;;;0.67;90.80;99863.13;4916944;29;20036;-76
2022/01/07 05:12:36;;;;;;;6.93;2.50;;;;;;;0.68;90.34;99856.00;4917552;29;20486;-75
2022/01/07 05:15:02;;;;;;;6.68;2.78;;;;;;;0.72;90.53;99867.13;4917739;29;20119;-77
2022/01/07 05:17:28;;;;;;;7.35;2.33;;;;;;;0.73;90.74;99866.94;4900637;29;20036;-78
2022/01/07 05:19:53;;;;;;;6.68;2.72;;;;;;;0.75;90.53;99864.97;4917317;29;20035;-77
2022/01/07 05:22:18;;;;;;;9.95;2.28;;;;;;;0.71;91.34;99866.31;4916813;29;20044;-78
2022/01/07 05:24:44;;;;;;;7.68;2.58;;;;;;;0.76;90.85;99853.38;4900650;29;20541;-76
2022/01/07 05:27:09;;;;;;;9.25;2.65;;;;;;;0.77;91.29;99862.19;4917210;29;20047;-77
2022/01/07 05:29:35;;;;;;;6.85;2.35;;;;;;;0.62;91.43;99853.97;4917304;29;20024;-75
2022/01/07 05:32:04;;;;;;;6.03;2.50;;;;;;;0.60;91.51;99862.06;4917081;29;20036;-75
2022/01/07 05:34:30;;;;;;;6.10;2.35;;;;;;;0.60;91.79;99861.22;4916969;29;20036;-75
2022/01/07 05:36:56;;;;;;;6.32;2.95;;;;;;;0.47;91.88;99872.25;4916969;29;20032;-77
2022/01/07 05:39:21;;;;;;;5.90;2.30;;;;;;;0.45;91.90;99860.97;4917331;29;20119;-76
2022/01/07 05:41:46;;;;;;;6.72;2.60;;;;;;;0.36;92.30;99850.47;4900037;29;20062;-77
2022/01/07 05:44:11;;;;;;;6.65;2.53;;;;;;;0.43;92.93;99851.50;4916938;29;20028;-77
2022/01/07 05:46:37;;;;;;;6.67;2.73;;;;;;;0.31;93.03;99843.81;4900515;29;20036;-79
2022/01/07 05:49:02;;;;;;;7.32;2.25;;;;;;;0.31;93.37;99846.44;4917407;29;20331;-77
2022/01/07 05:51:28;;;;;;;8.33;2.93;;;;;;;0.25;93.37;99848.88;4917068;29;20486;-76
2022/01/07 05:53:53;;;;;;;13.50;2.63;;;;;;;0.17;93.23;99847.00;4917102;29;20275;-76
2022/01/07 05:56:18;;;;;;;8.75;2.45;;;;;;;0.17;93.62;99849.66;4917389;29;20386;-76
2022/01/07 05:58:44;;;;;;;7.80;2.47;;;;;;;0.13;93.51;99848.28;4917109;29;20067;-77
2022/01/07 06:01:11;;;;;;;8.17;2.80;;;;;;;0.12;93.52;99838.66;4916976;29;20303;-76
2022/01/07 06:03:36;;;;;;;5.60;2.17;;;;;;;0.08;93.63;99831.16;4916866;29;20260;-75
2022/01/07 06:06:02;;;;;;;6.47;2.25;;;;;;;0.03;94.11;99842.22;4916231;29;20087;-76
2022/01/07 06:08:27;;;;;;;6.75;2.22;;;;;;;0.06;94.24;99844.56;4916777;29;20190;-78
2022/01/07 06:10:52;;;;;;;5.07;2.60;;;;;;;0.09;94.31;99831.03;4899727;29;20032;-75
2022/01/07 06:13:18;;;;;;;5.90;2.30;;;;;;;0.07;94.29;99829.50;4918529;29;20039;-76
2022/01/07 06:15:43;;;;;;;9.05;3.00;;;;;;;0.09;94.32;99832.84;4920380;29;20040;-76
2022/01/07 06:18:08;;;;;;;6.93;2.63;;;;;;;0.10;94.50;99826.56;4920367;29;20060;-75
2022/01/07 06:20:34;;;;;;;8.63;3.00;;;;;;;0.12;94.24;99825.44;4902744;29;20083;-78
2022/01/07 06:22:59;;;;;;;7.35;2.85;;;;;;;0.09;94.27;99828.38;4920364;29;20037;-76
2022/01/07 06:25:25;;;;;;;7.63;2.77;;;;;;;0.14;94.70;99831.41;4920641;29;20922;-76
2022/01/07 06:27:50;;;;;;;7.72;2.72;;;;;;;0.24;94.29;99820.72;4919972;29;20287;-78
2022/01/07 06:30:15;;;;;;;5.28;2.15;;;;;;;0.24;94.18;99832.13;4919635;29;20043;-77
2022/01/07 06:32:42;;;;;;;7.22;2.88;;;;;;;0.25;93.99;99831.16;4903191;29;20044;-76
2022/01/07 06:35:09;;;;;;;9.63;2.95;;;;;;;0.19;94.19;99826.47;4920039;29;20447;-78
2022/01/07 06:37:36;;;;;;;8.68;3.42;;;;;;;0.17;94.50;99833.75;4903515;29;20040;-77
2022/01/07 06:40:02;;;;;;;10.32;2.88;;;;;;;0.21;94.57;99837.75;4920158;29;20394;-78
2022/01/07 06:42:27;;;;;;;7.60;2.80;;;;;;;0.24;94.56;99831.31;4919732;29;20040;-77
2022/01/07 06:44:53;;;;;;;9.63;2.45;;;;;;;0.24;94.15;99834.78;4919647;29;20486;-75
2022/01/07 06:47:18;;;;;;;6.15;3.13;;;;;;;0.22;94.37;99822.69;4919121;29;20078;-76
2022/01/07 06:49:43;;;;;;;6.83;3.13;;;;;;;0.29;94.09;99824.56;4919745;29;20040;-77
2022/01/07 06:52:09;;;;;;;5.90;2.87;;;;;;;0.31;94.35;99808.53;4920499;29;20320;-78
2022/01/07 06:54:34;;;;;;;7.80;3.22;;;;;;;0.30;94.11;99818.28;4920131;29;20522;-77
2022/01/07 06:57:00;;;;;;;6.43;2.63;;;;;;;0.30;94.44;99828.88;4919614;29;20087;-77
2022/01/07 06:59:25;;;;;;;9.45;3.55;;;;;;;0.32;94.35;99811.03;4920142;29;20118;-78
2022/01/07 07:01:50;;;;;;;7.13;3.00;;;;;;;0.34;94.17;99810.88;4920575;29;20045;-77
2022/01/07 07:04:16;;;;;;;7.53;4.07;;;;;;;0.47;93.91;99813.09;4920079;29;20056;-76
2022/01/07 07:06:42;;;;;;;;;;;;;;;0.44;94.21;99814.25;4919812;29;20543;-77
2022/01/07 07:09:08;;;;;;;6.75;3.03;;;;;;;0.52;94.35;99822.25;4920008;29;19919;-77
2022/01/07 07:11:34;;;;;;;11.20;4.03;;;;;;;0.50;94.12;99815.44;4919868;29;20028;-76
2022/01/07 07:13:59;;;;;;;12.13;4.05;;;;;;;0.55;93.91;99821.09;4902879;29;20051;-77
2022/01/07 07:16:25;;;;;;;7.00;3.30;;;;;;;0.62;94.48;99817.69;4919947;29;20070;-77
2022/01/07 07:18:50;;;;;;;7.45;3.00;;;;;;;0.58;94.07;99821.63;4919264;29;20036;-76
2022/01/07 07:21:15;;;;;;;8.47;2.93;;;;;;;0.65;94.07;99825.31;4919811;29;20447;-77
2022/01/07 07:23:41;;;;;;;5.85;3.13;;;;;;;0.80;94.30;99830.88;4919560;29;20071;-78
2022/01/07 07:26:06;;;;;;;8.00;3.25;;;;;;;0.86;93.77;99824.97;4920485;29;20047;-78
2022/01/07 07:28:35;;;;;;;9.95;3.50;;;;;;;0.81;94.00;99821.94;4920155;29;20024;-80
2022/01/07 07:31:01;;;;;;;9.55;3.85;;;;;;;0.82;93.84;99834.22;4903677;29;20036;-81
2022/01/07 07:33:29;;;;;;;9.27;3.33;;;;;;;0.82;93.42;99834.22;4920536;29;20036;-79
2022/01/07 07:38:42;;;;;;;11.60;3.97;;;;;;;0.88;93.59;99840.72;4920439;29;20143;-78
2022/01/07 07:41:07;;;;;;;8.35;2.60;;;;;;;0.93;93.82;99833.94;4919833;29;20071;-80
2022/01/07 07:43:37;;;;;;;11.98;4.28;;;;;;;0.94;93.07;99832.94;4902965;29;20032;-78
2022/01/07 07:46:04;;;;;;;13.57;5.45;;;;;;;1.00;93.21;99834.97;4919752;29;20456;-77
2022/01/07 07:48:30;;;;;;;11.15;4.40;;;;;;;1.04;93.14;99838.16;4919674;29;20036;-79
2022/01/07 07:50:56;;;;;;;8.73;3.35;;;;;;;1.11;92.92;99830.38;4902435;29;20028;-79
2022/01/07 07:53:21;;;;;;;16.73;4.10;;;;;;;1.13;93.09;99831.06;4919282;29;20032;-78
2022/01/07 07:55:53;;;;;;;9.48;3.08;;;;;;;1.13;92.63;99841.66;4919592;29;20260;-79
2022/01/07 07:58:22;;;;;;;9.60;3.83;;;;;;;1.14;93.02;99832.72;4902772;29;20052;-79
2022/01/07 08:00:48;;;;;;;9.98;3.80;;;;;;;1.18;92.85;99837.56;4919298;29;20040;-78
2022/01/07 08:03:13;;;;;;;;;;;;;;;1.22;92.93;99838.06;4920181;29;20043;-79
2022/01/07 08:05:39;;;;;;;7.05;3.25;;;;;;;1.24;92.61;99844.06;4919909;29;20281;-79
2022/01/07 08:08:05;;;;;;;8.48;3.28;;;;;;;1.27;92.53;99841.88;4919969;29;20122;-77
2022/01/07 08:10:31;;;;;;;8.60;4.03;;;;;;;1.29;92.24;99847.03;4918255;29;20125;-77
2022/01/07 08:18:15;;;;;;;9.77;3.65;;;;;;;1.41;92.04;99839.63;4918332;29;20067;-77
2022/01/07 08:20:40;;;;;;;8.13;3.20;;;;;;;1.42;92.10;99851.94;4919388;29;20036;-78
2022/01/07 08:23:06;;;;;;;7.20;3.07;;;;;;;1.43;92.09;99851.75;4918510;29;20037;-78
2022/01/07 08:25:32;;;;;;;8.68;3.70;;;;;;;1.54;91.75;99842.66;4918335;29;20680;-77
2022/01/07 08:28:03;;;;;;;5.72;2.95;;;;;;;1.52;91.90;99840.16;4918781;29;20112;-77
2022/01/07 08:30:35;;;;;;;9.75;3.70;;;;;;;1.49;91.67;99844.97;4918863;29;20092;-79
2022/01/07 08:35:46;;;;;;;8.10;2.88;;;;;;;1.53;91.25;99841.00;4917723;29;20095;-76
2022/01/07 08:38:11;;;;;;;11.52;4.18;;;;;;;1.58;91.34;99839.53;4900993;29;20028;-77
2022/01/07 08:40:37;;;;;;;9.80;3.57;;;;;;;1.62;91.74;99835.53;4918063;29;20448;-76
2022/01/07 08:43:02;;;;;;;6.88;3.15;;;;;;;1.63;91.26;99833.72;4902710;29;20285;-77
2022/01/07 08:45:28;;;;;;;5.43;2.55;;;;;;;1.60;91.59;99829.59;4920056;29;20043;-78
2022/01/07 08:47:53;;;;;;;6.38;3.45;;;;;;;1.60;91.44;99834.91;4902510;29;20039;-76
2022/01/07 08:50:19;;;;;;;7.88;2.80;;;;;;;1.61;91.35;99817.94;4921457;29;20196;-77
2022/01/07 08:52:44;;;;;;;7.90;2.85;;;;;;;1.67;91.22;99822.63;4921815;29;20086;-77
2022/01/07 08:55:10;;;;;;;7.80;3.05;;;;;;;1.62;91.55;99816.94;4918858;29;20035;-76
2022/01/07 08:57:35;;;;;;;8.93;2.63;;;;;;;1.66;91.25;99812.97;4919525;29;20028;-77
2022/01/07 09:00:01;;;;;;;7.33;3.13;;;;;;;1.68;91.18;99799.53;4902587;29;20526;-77
2022/01/07 09:02:26;;;;;;;8.80;3.45;;;;;;;1.68;91.49;99808.34;4921430;29;20376;-76
2022/01/07 09:04:52;;;;;;;7.30;2.83;;;;;;;1.73;90.93;99799.91;4916953;29;20123;-77
2022/01/07 09:07:17;;;;;;;8.68;3.08;;;;;;;1.76;91.88;99801.41;4916756;29;20608;-75
2022/01/07 09:09:42;;;;;;;7.45;3.55;;;;;;;1.77;91.33;99814.53;4916327;29;20056;-75
2022/01/07 09:12:09;;;;;;;5.67;2.67;;;;;;;1.80;92.01;99808.03;4916564;29;20035;-76
2022/01/07 09:14:34;;;;;;;6.72;2.22;;;;;;;1.82;91.52;99806.88;4916398;29;20712;-76
2022/01/07 09:17:00;;;;;;;4.68;2.00;;;;;;;1.91;90.83;99810.38;4916632;29;20039;-76
2022/01/07 09:19:26;;;;;;;6.43;2.28;;;;;;;1.81;91.38;99802.56;4916631;29;20036;-76
2022/01/07 09:21:51;;;;;;;6.32;2.45;;;;;;;1.80;91.45;99805.38;4917259;29;20040;-77
2022/01/07 09:24:17;;;;;;;6.07;2.63;;;;;;;1.85;91.83;99809.19;4899756;29;20072;-76
2022/01/07 09:26:43;;;;;;;;;;;;;;;1.86;91.80;99802.06;4916849;29;20403;-77
2022/01/07 09:29:08;;;;;;;5.40;2.08;;;;;;;1.91;91.50;99808.56;4916377;29;19915;-77
2022/01/07 09:31:34;;;;;;;7.45;2.78;;;;;;;1.97;91.31;99809.72;4916413;29;20390;-76
2022/01/07 09:34:00;;;;;;;4.77;2.00;;;;;;;1.97;91.28;99809.72;4916415;29;20435;-76
2022/01/07 09:36:25;;;;;;;5.70;2.10;;;;;;;2.03;91.56;99822.34;4916514;29;20252;-77
2022/01/07 09:38:50;;;;;;;4.80;2.73;;;;;;;2.04;91.38;99819.53;4916471;29;20043;-77
2022/01/07 09:41:17;;;;;;;5.53;2.00;;;;;;;2.09;91.24;99827.00;4916841;29;20267;-76
2022/01/07 09:43:44;;;;;;;6.60;2.42;;;;;;;2.12;91.31;99823.19;4899936;29;20122;-76
2022/01/07 09:46:12;;;;;;;8.30;2.17;;;;;;;2.14;91.19;99818.53;4916725;29;20036;-76
2022/01/07 09:48:38;;;;;;;6.55;2.20;;;;;;;2.17;91.01;99816.38;4919794;29;20047;-77
2022/01/07 09:51:03;;;;;;;5.40;2.05;;;;;;;2.26;90.82;99820.69;4920297;29;20032;-76
2022/01/07 09:53:28;;;;;;;4.95;2.03;;;;;;;2.26;91.08;99814.56;4920157;29;20122;-75
2022/01/07 09:55:54;;;;;;;6.00;2.20;;;;;;;2.30;90.75;99810.56;4920323;29;20067;-77
2022/01/07 09:58:19;;;;;;;6.30;2.30;;;;;;;2.37;91.13;99814.22;4920245;29;20256;-75
2022/01/07 10:00:45;;;;;;;4.28;1.80;;;;;;;2.39;90.48;99810.38;4920137;29;20047;-75
2022/01/07 10:03:13;;;;;;;4.45;1.85;;;;;;;2.38;90.23;99815.88;4920488;29;20444;-77
2022/01/07 10:05:42;;;;;;;4.57;1.98;;;;;;;2.45;90.15;99803.56;4919971;29;20535;-75
2022/01/07 10:08:27;;;;;;;6.53;2.15;;;;;;;2.49;90.21;99807.56;4920466;29;20083;-76
2022/01/07 10:11:16;;;;;;;4.28;1.80;;;;;;;2.50;89.86;99805.75;4920030;29;20105;-74
2022/01/07 10:13:51;;;;;;;5.35;1.92;;;;;;;2.52;90.24;99801.06;4920140;29;20040;-76
2022/01/07 10:16:23;;;;;;;4.72;1.85;;;;;;;2.58;89.32;99808.38;4903145;29;20059;-75
2022/01/07 10:18:49;;;;;;;5.10;2.00;;;;;;;2.60;89.10;99803.72;4919523;29;20036;-76
2022/01/07 10:21:18;;;;;;;4.32;2.10;;;;;;;2.63;89.37;99800.72;4919493;29;20400;-76
2022/01/07 10:23:45;;;;;;;4.20;1.48;;;;;;;2.67;88.83;99802.06;4902468;29;20379;-76
2022/01/07 10:26:16;;;;;;;4.15;1.67;;;;;;;2.69;88.88;99794.72;4919642;29;20036;-76
2022/01/07 10:28:42;;;;;;;5.13;1.35;;;;;;;2.71;89.39;99796.19;4919439;29;20028;-75
2022/01/07 10:31:08;;;;;;;3.90;1.52;;;;;;;2.76;88.83;99799.19;4919281;29;20056;-75
2022/01/07 10:33:39;;;;;;;3.97;1.75;;;;;;;2.84;88.37;99787.72;4919264;29;20088;-76
2022/01/07 10:36:07;;;;;;;3.75;1.40;;;;;;;2.83;88.54;99785.22;4919405;29;20036;-76
2022/01/07 10:38:46;;;;;;;3.97;1.60;;;;;;;2.88;88.10;99791.66;4919135;29;20098;-75
2022/01/07 10:41:13;;;;;;;4.38;1.88;;;;;;;2.89;87.36;99796.00;4919320;29;20047;-76
2022/01/07 10:43:38;;;;;;;3.83;1.77;;;;;;;2.85;88.11;99797.38;4918740;29;20396;-75
2022/01/07 10:46:07;;;;;;;3.28;1.40;;;;;;;2.87;87.84;99794.50;4919257;29;20063;-76
2022/01/07 10:48:47;;;;;;;6.63;1.75;;;;;;;2.90;87.82;99802.97;4918901;29;20035;-75
2022/01/07 10:51:18;;;;;;;3.40;1.20;;;;;;;2.88;87.51;99799.66;4902224;29;20031;-76
2022/01/07 10:53:50;;;;;;;4.85;1.50;;;;;;;2.85;87.96;99794.69;4919288;29;20391;-76
2022/01/07 10:56:37;;;;;;;3.15;1.25;;;;;;;2.88;87.81;99793.50;4919571;29;20036;-76
2022/01/07 10:59:14;;;;;;;4.00;1.63;;;;;;;2.89;88.03;99785.34;4907975;29;20040;-75
2022/01/07 11:01:45;;;;;;;6.28;2.40;;;;;;;2.98;87.57;99779.03;4918986;29;20044;-76
2022/01/07 11:04:21;;;;;;;5.28;1.40;;;;;;;2.96;87.42;99772.19;4918734;29;20515;-77
2022/01/07 11:06:51;;;;;;;3.67;1.50;;;;;;;2.94;87.61;99774.19;4901876;29;20032;-75
2022/01/07 11:09:18;;;;;;;4.32;1.63;;;;;;;2.95;87.10;99767.88;4918626;29;20028;-75
2022/01/07 11:12:00;;;;;;;5.55;1.40;;;;;;;2.96;86.79;99766.88;4918477;29;20413;-77
2022/01/07 11:14:28;;;;;;;3.90;1.80;;;;;;;2.98;87.20;99767.53;4901756;29;20064;-75
2022/01/07 11:16:57;;;;;;;4.15;1.42;;;;;;;2.97;87.33;99761.38;4918575;29;20032;-77
2022/01/07 11:19:27;;;;;;;4.00;1.50;;;;;;;3.01;87.45;99777.84;4918952;29;20032;-75
2022/01/07 11:21:55;;;;;;;3.25;1.30;;;;;;;2.99;87.17;99764.72;4919069;29;20455;-75
2022/01/07 11:24:34;;;;;;;4.65;2.00;;;;;;;3.08;87.71;99765.50;4902112;29;20032;-76
2022/01/07 11:27:12;;;;;;;3.88;1.58;;;;;;;3.06;86.87;99755.00;4918943;29;20484;-76
2022/01/07 11:30:02;;;;;;;4.25;1.85;;;;;;;3.06;87.00;99757.69;4901496;29;20122;-77
2022/01/07 11:32:29;;;;;;;9.00;1.98;;;;;;;3.10;87.13;99753.69;4909264;29;20048;-76
2022/01/07 11:35:17;;;;;;;3.63;1.60;;;;;;;3.12;86.08;99749.00;4918589;29;20369;-77
2022/01/07 11:37:43;;;;;;;3.72;1.52;;;;;;;3.12;86.85;99749.00;4918566;29;20028;-75
2022/01/07 11:40:09;;;;;;;5.03;1.77;;;;;;;3.15;86.90;99747.84;4918768;29;20052;-76
2022/01/07 11:42:43;;;;;;;4.75;1.77;;;;;;;3.18;86.21;99747.50;4918647;29;20048;-76
2022/01/07 11:45:26;;;;;;;3.92;1.67;;;;;;;3.18;86.47;99747.50;4918453;29;20076;-75
2022/01/07 11:47:52;;;;;;;5.10;1.90;;;;;;;3.18;86.66;99738.69;4901361;29;20036;-76
2022/01/07 11:50:17;;;;;;;5.35;1.58;;;;;;;3.17;86.69;99739.69;4919233;29;20041;-75